createdAt,value
2018-12-21T00:00:56.375Z,6.90
2018-12-21T00:03:28.246Z,6.70
2018-12-21T00:06:00.077Z,6.00
2018-12-21T00:08:34.524Z,5.60
2018-12-21T00:11:06.857Z,5.70
2018-12-21T00:13:42.051Z,6.10
2018-12-21T00:16:16.877Z,6.60
2018-12-21T00:18:51.647Z,6.80
2018-12-21T00:21:23.920Z,6.80
2018-12-21T00:23:55.658Z,6.70
2018-12-21T00:26:27.615Z,6.70
2018-12-21T00:44:54.423Z,7.00
2018-12-21T00:47:24.594Z,7.20
2018-12-21T00:49:56.470Z,6.40
2018-12-21T00:52:28.487Z,5.90
2018-12-21T00:54:58.672Z,5.70
2018-12-21T00:57:30.646Z,6.00
2018-12-21T01:00:07.067Z,6.30
2018-12-21T01:02:39.311Z,6.70
2018-12-21T01:05:13.959Z,7.00
2018-12-21T01:07:43.924Z,7.20
2018-12-21T01:10:18.403Z,7.30
2018-12-21T01:12:53.043Z,7.30
2018-12-21T01:15:28.021Z,7.10
2018-12-21T01:18:02.938Z,7.10
2018-12-21T01:20:37.477Z,7.20
2018-12-21T01:23:07.435Z,7.20
2018-12-21T01:25:41.815Z,7.10
2018-12-21T01:28:14.258Z,7.20
2018-12-21T01:30:46.118Z,7.30
2018-12-21T01:33:18.571Z,7.20
2018-12-21T01:35:53.851Z,7.10
2018-12-21T01:38:25.639Z,7.10
2018-12-21T01:40:57.378Z,7.20
2018-12-21T01:46:31.667Z,7.10
2018-12-21T01:49:03.352Z,7.10
2018-12-21T01:51:38.146Z,7.30
2018-12-21T01:54:12.688Z,7.30
2018-12-21T01:56:47.511Z,7.40
2018-12-21T01:59:17.579Z,7.30
2018-12-21T02:01:51.968Z,7.30
2018-12-21T02:04:23.727Z,7.30
2018-12-21T02:06:58.197Z,7.30
2018-12-21T02:09:32.755Z,7.40
2018-12-21T02:12:02.696Z,7.30
2018-12-21T02:14:36.924Z,7.20
2018-12-21T02:17:11.681Z,7.40
2018-12-21T02:19:41.700Z,7.30
2018-12-21T02:22:11.623Z,7.20
2018-12-21T02:24:43.385Z,7.20
2018-12-21T02:27:18.037Z,7.10
2018-12-21T02:29:48.257Z,7.20
2018-12-21T02:32:18.060Z,7.20
2018-12-21T02:34:50.161Z,7.20
2018-12-21T02:37:21.707Z,7.00
2018-12-21T02:39:53.604Z,7.20
2018-12-21T02:42:25.176Z,7.20
2018-12-21T02:44:59.923Z,7.20
2018-12-21T02:47:32.006Z,7.20
2018-12-21T02:50:02.096Z,7.20
2018-12-21T02:52:31.927Z,7.20
2018-12-21T02:55:04.027Z,7.30
2018-12-21T02:57:35.916Z,7.20
2018-12-21T03:00:08.608Z,7.20
2018-12-21T03:02:39.184Z,7.30
2018-12-21T03:05:10.920Z,7.30
2018-12-21T03:07:45.559Z,7.30
2018-12-21T03:10:20.427Z,7.20
2018-12-21T03:12:52.729Z,7.20
2018-12-21T03:15:24.545Z,7.10
2018-12-21T03:17:59.084Z,6.70
2018-12-21T03:20:33.826Z,6.20
2018-12-21T03:23:06.128Z,6.00
2018-12-21T03:25:40.658Z,5.80
2018-12-21T03:28:11.001Z,5.70
2018-12-21T03:30:45.474Z,5.80
2018-12-21T03:33:15.684Z,5.90
2018-12-21T03:35:47.421Z,5.90
2018-12-21T03:38:22.003Z,5.80
2018-12-21T03:40:56.651Z,5.70
2018-12-21T03:43:27.169Z,5.50
2018-12-21T03:45:59.300Z,5.50
2018-12-21T03:48:30.940Z,5.50
2018-12-21T03:51:00.867Z,5.60
2018-12-21T03:53:32.556Z,5.50
2018-12-21T03:56:04.468Z,5.60
2018-12-21T03:58:39.128Z,5.60
2018-12-21T04:01:09.343Z,5.60
2018-12-21T04:03:41.389Z,5.50
2018-12-21T04:06:11.673Z,5.60
2018-12-21T04:08:43.569Z,5.80
2018-12-21T04:11:13.394Z,6.10
2018-12-21T04:13:43.401Z,6.20
2018-12-21T04:16:15.216Z,6.00
2018-12-21T04:18:45.246Z,5.80
2018-12-21T04:21:19.701Z,5.70
2018-12-21T04:23:49.609Z,5.90
2018-12-21T04:26:19.522Z,5.90
2018-12-21T04:28:51.307Z,5.70
2018-12-21T04:31:25.807Z,5.80
2018-12-21T04:33:55.786Z,5.90
2018-12-21T04:36:27.430Z,5.90
2018-12-21T04:38:59.355Z,6.00
2018-12-21T04:41:33.711Z,6.00
2018-12-21T04:44:05.846Z,6.10
2018-12-21T04:46:37.646Z,6.10
2018-12-21T04:49:07.502Z,6.10
2018-12-21T04:51:37.885Z,6.00
2018-12-21T04:54:09.712Z,6.00
2018-12-21T04:56:44.281Z,6.00
2018-12-21T04:59:14.223Z,5.90
2018-12-21T05:01:44.316Z,5.90
2018-12-21T05:04:20.246Z,6.00
2018-12-21T05:06:56.432Z,5.80
2018-12-21T05:09:28.651Z,5.80
2018-12-21T05:12:01.124Z,5.80
2018-12-21T05:14:32.910Z,5.90
2018-12-21T05:17:05.119Z,6.30
2018-12-21T05:19:35.179Z,6.30
2018-12-21T05:22:10.022Z,6.30
2018-12-21T05:24:40.324Z,6.60
2018-12-21T05:42:44.121Z,6.90
2018-12-21T05:45:16.167Z,6.90
2018-12-21T05:47:46.060Z,6.90
2018-12-21T05:50:20.496Z,6.70
2018-12-21T05:52:50.709Z,6.60
2018-12-21T05:55:25.352Z,6.60
2018-12-21T05:58:00.460Z,6.50
2018-12-21T06:00:32.306Z,6.50
2018-12-21T06:03:06.964Z,6.70
2018-12-21T06:05:38.964Z,6.60
2018-12-21T06:08:13.407Z,6.30
2018-12-21T06:10:48.017Z,6.30
2018-12-21T06:13:22.712Z,6.50
2018-12-21T06:15:52.642Z,6.70
2018-12-21T06:18:24.484Z,6.80
2018-12-21T06:20:59.050Z,6.60
2018-12-21T06:23:33.813Z,6.60
2018-12-21T06:26:08.490Z,6.50
2018-12-21T06:28:40.672Z,6.60
2018-12-21T06:31:15.333Z,6.50
2018-12-21T06:33:47.320Z,6.40
2018-12-21T06:36:19.450Z,6.40
2018-12-21T06:38:54.377Z,6.30
2018-12-21T06:41:29.040Z,6.40
2018-12-21T06:43:59.256Z,6.30
2018-12-21T06:46:33.855Z,6.20
2018-12-21T06:49:04.011Z,6.20
2018-12-21T06:51:35.832Z,6.30
2018-12-21T06:54:10.284Z,6.60
2018-12-21T06:56:40.487Z,6.70
2018-12-21T06:59:14.947Z,6.80
2018-12-21T07:01:45.224Z,6.70
2018-12-21T07:04:20.072Z,6.80
2018-12-21T07:06:51.291Z,6.70
2018-12-21T07:09:33.316Z,6.60
2018-12-21T07:12:10.480Z,6.50
2018-12-21T07:14:42.340Z,6.60
2018-12-21T07:17:14.244Z,6.70
2018-12-21T07:19:46.268Z,6.50
2018-12-21T07:22:17.958Z,6.40
2018-12-21T07:24:52.256Z,6.50
2018-12-21T07:27:24.543Z,6.50
2018-12-21T07:29:54.283Z,6.40
2018-12-21T08:04:07.324Z,6.60
2018-12-21T08:07:33.415Z,6.60
2018-12-21T08:35:08.044Z,6.50
2018-12-21T08:37:39.682Z,6.40
2018-12-21T08:43:05.644Z,6.40
2018-12-21T08:45:37.999Z,6.40
2018-12-21T09:19:52.422Z,6.80
2018-12-21T09:22:23.713Z,6.90
2018-12-21T09:24:56.379Z,6.90
2018-12-21T09:27:31.204Z,7.00
2018-12-21T09:30:03.528Z,7.90
2018-12-21T09:32:37.991Z,7.40
2018-12-21T09:35:08.203Z,7.20
2018-12-21T09:37:43.305Z,7.30
2018-12-21T09:40:24.671Z,8.20
2018-12-21T09:42:54.893Z,8.30
2018-12-21T09:45:29.427Z,8.20
2018-12-21T09:48:10.452Z,9.10
2018-12-21T09:50:39.080Z,9.20
2018-12-21T09:53:09.466Z,9.30
2018-12-21T09:55:41.088Z,9.50
2018-12-21T09:58:15.689Z,9.40
2018-12-21T10:00:47.959Z,9.60
2018-12-21T10:03:22.707Z,9.40
2018-12-21T10:05:57.523Z,9.30
2018-12-21T10:08:29.603Z,9.70
2018-12-21T10:11:01.458Z,9.90
2018-12-21T10:13:33.368Z,9.70
2018-12-21T10:16:07.673Z,9.60
2018-12-21T10:18:39.803Z,9.80
2018-12-21T10:21:14.944Z,9.50
2018-12-21T10:23:47.096Z,9.60
2018-12-21T10:26:21.437Z,9.50
2018-12-21T10:28:56.283Z,9.60
2018-12-21T10:31:28.192Z,9.70
2018-12-21T10:34:00.109Z,9.70
2018-12-21T10:36:31.835Z,9.80
2018-12-21T10:39:06.453Z,9.80
2018-12-21T10:41:38.068Z,9.70
2018-12-21T10:44:07.893Z,9.60
2018-12-21T10:46:39.705Z,9.70
2018-12-21T10:49:14.200Z,9.50
2018-12-21T10:51:48.914Z,9.60
2018-12-21T10:54:26.795Z,9.60
2018-12-21T10:56:53.372Z,9.40
2018-12-21T10:59:25.369Z,9.50
2018-12-21T11:01:57.323Z,9.50
2018-12-21T11:04:29.252Z,9.50
2018-12-21T11:07:00.906Z,9.60
2018-12-21T11:09:32.716Z,9.50
2018-12-21T11:12:07.109Z,9.80
2018-12-21T11:14:41.767Z,9.90
2018-12-21T11:17:14.233Z,10.30
2018-12-21T11:19:44.139Z,9.90
2018-12-21T11:22:16.181Z,9.90
2018-12-21T11:24:47.764Z,9.90
2018-12-21T11:27:17.909Z,9.80
2018-12-21T11:29:49.968Z,10.00
2018-12-21T11:32:21.715Z,10.00
2018-12-21T11:34:54.932Z,10.00
2018-12-21T11:37:24.985Z,10.00
2018-12-21T11:39:59.876Z,10.00
2018-12-21T11:42:44.566Z,10.20
2018-12-21T11:53:40.119Z,10.10
2018-12-21T11:56:16.417Z,10.10
2018-12-21T11:58:48.631Z,10.20
2018-12-21T12:01:20.199Z,10.30
2018-12-21T12:03:54.760Z,10.20
2018-12-21T12:06:24.816Z,10.20
2018-12-21T12:09:06.129Z,10.20
2018-12-21T12:11:33.861Z,10.30
2018-12-21T12:14:03.538Z,10.40
2018-12-21T12:16:35.607Z,10.40
2018-12-21T12:19:05.251Z,10.40
2018-12-21T12:21:39.941Z,10.40
2018-12-21T12:24:14.587Z,10.40
2018-12-21T12:26:49.531Z,10.40
2018-12-21T12:29:24.064Z,10.30
2018-12-21T12:31:54.042Z,10.40
2018-12-21T12:34:23.966Z,10.30
2018-12-21T12:36:57.983Z,10.40
2018-12-21T12:39:27.712Z,10.50
2018-12-21T13:04:37.594Z,10.60
2018-12-21T13:07:07.310Z,11.00
2018-12-21T13:09:35.783Z,11.00
2018-12-21T13:12:10.241Z,11.00
2018-12-21T13:14:44.570Z,11.00
2018-12-21T13:17:16.469Z,11.10
2018-12-21T13:19:47.993Z,11.00
2018-12-21T13:22:20.035Z,11.00
2018-12-21T13:24:51.979Z,11.00
2018-12-21T13:27:23.674Z,10.90
2018-12-21T13:33:10.777Z,11.10
2018-12-21T13:41:40.659Z,11.00
2018-12-21T13:44:14.923Z,11.00
2018-12-21T13:46:44.813Z,11.00
2018-12-21T13:49:16.666Z,11.00
2018-12-21T13:51:48.611Z,11.10
2018-12-21T13:54:23.171Z,11.10
2018-12-21T13:56:55.162Z,11.00
2018-12-21T14:02:34.072Z,11.00
2018-12-21T14:11:09.096Z,11.00
2018-12-21T14:13:44.204Z,10.90
2018-12-21T14:16:16.358Z,10.90
2018-12-21T14:18:46.258Z,11.10
2018-12-21T14:21:20.601Z,11.00
2018-12-21T14:23:52.526Z,11.00
2018-12-21T14:26:24.383Z,11.00
2018-12-21T14:28:56.066Z,11.00
2018-12-21T14:31:30.514Z,11.00
2018-12-21T14:34:02.731Z,10.90
2018-12-21T14:36:36.984Z,10.90
2018-12-21T14:39:07.486Z,10.90
2018-12-21T14:41:37.723Z,10.90
2018-12-21T14:44:09.530Z,10.90
2018-12-21T14:46:41.566Z,10.90
2018-12-21T14:49:13.266Z,11.00
2018-12-21T14:51:44.921Z,10.90
2018-12-21T14:54:16.683Z,11.00
2018-12-21T14:56:51.126Z,11.00
2018-12-21T14:59:21.142Z,11.10
2018-12-21T15:01:51.050Z,11.00
2018-12-21T15:04:25.455Z,11.10
2018-12-21T15:06:55.656Z,11.00
2018-12-21T15:09:30.218Z,11.00
2018-12-21T15:12:04.967Z,11.00
2018-12-21T15:14:39.507Z,11.00
2018-12-21T15:17:09.682Z,11.00
2018-12-21T15:19:44.186Z,10.90
2018-12-21T15:22:18.854Z,11.00
2018-12-21T15:24:50.662Z,10.90
2018-12-21T15:27:20.462Z,10.90
2018-12-21T15:29:54.897Z,10.90
2018-12-21T15:32:25.012Z,11.10
2018-12-21T15:34:56.640Z,10.90
2018-12-21T15:37:28.250Z,10.90
2018-12-21T15:40:00.291Z,10.90
2018-12-21T15:42:34.826Z,10.90
2018-12-21T15:45:06.100Z,10.90
2018-12-21T15:47:37.599Z,10.90
2018-12-21T15:50:10.842Z,10.90
2018-12-21T15:52:41.080Z,10.80
2018-12-21T15:55:14.361Z,10.80
2018-12-21T15:57:50.520Z,10.80
2018-12-21T16:00:23.049Z,10.60
2018-12-21T16:02:54.576Z,10.90
2018-12-21T16:05:30.273Z,11.00
2018-12-21T16:08:02.958Z,11.00
2018-12-21T16:10:35.415Z,11.00
2018-12-21T16:13:07.860Z,11.00
2018-12-21T16:15:43.326Z,11.10
2018-12-21T16:18:15.414Z,11.00
2018-12-21T16:20:47.032Z,11.10
2018-12-21T16:23:19.341Z,11.20
2018-12-21T16:25:53.814Z,11.20
2018-12-21T16:28:28.989Z,11.10
2018-12-21T16:31:03.205Z,11.20
2018-12-21T16:33:37.922Z,10.90
2018-12-21T16:36:07.944Z,10.70
2018-12-21T16:38:38.381Z,10.80
2018-12-21T16:41:08.688Z,10.90
2018-12-21T16:43:41.051Z,11.00
2018-12-21T16:46:11.574Z,10.90
2018-12-21T16:48:43.081Z,11.00
2018-12-21T16:51:17.903Z,10.80
2018-12-21T16:53:46.490Z,10.80
2018-12-21T16:56:19.640Z,10.90
2018-12-21T16:58:54.045Z,11.00
2018-12-21T17:01:28.783Z,11.00
2018-12-21T17:03:58.994Z,11.00
2018-12-21T17:06:37.127Z,11.10
2018-12-21T17:09:09.718Z,11.10
2018-12-21T17:11:42.412Z,11.10
2018-12-21T17:14:12.466Z,10.90
2018-12-21T17:16:45.160Z,10.90
2018-12-21T17:19:15.386Z,11.00
2018-12-21T17:21:45.322Z,11.00
2018-12-21T17:24:20.930Z,10.80
2018-12-21T17:26:53.167Z,10.90
2018-12-21T17:29:25.679Z,10.90
2018-12-21T17:31:56.370Z,10.90
2018-12-21T17:34:26.385Z,11.10
2018-12-21T17:36:56.822Z,11.00
2018-12-21T17:39:29.682Z,11.00
2018-12-21T17:42:01.355Z,11.10
2018-12-21T17:44:34.211Z,11.00
2018-12-21T17:47:09.637Z,11.00
2018-12-21T17:49:42.412Z,11.00
2018-12-21T17:52:12.244Z,11.00
2018-12-21T17:54:46.997Z,11.00
2018-12-21T17:57:16.886Z,11.00
2018-12-21T17:59:48.571Z,10.90
2018-12-21T18:02:22.855Z,11.00
2018-12-21T18:04:54.759Z,11.10
2018-12-21T18:07:26.274Z,10.80
2018-12-21T18:09:58.092Z,10.80
2018-12-21T18:12:29.878Z,10.90
2018-12-21T18:15:02.682Z,11.00
2018-12-21T18:17:37.123Z,11.00
2018-12-21T18:20:11.906Z,10.90
2018-12-21T18:22:44.180Z,10.90
2018-12-21T18:25:19.765Z,10.80
2018-12-21T18:27:54.570Z,10.80
2018-12-21T18:30:25.200Z,10.80
2018-12-21T18:32:57.703Z,11.00
2018-12-21T18:35:29.511Z,10.90
2018-12-21T18:38:01.340Z,10.80
2018-12-21T18:40:31.822Z,10.90
2018-12-21T18:43:06.197Z,11.00
2018-12-21T18:45:40.783Z,11.00
2018-12-21T18:48:10.767Z,11.00
2018-12-21T18:50:47.347Z,10.90
2018-12-21T18:53:22.811Z,11.00
2018-12-21T18:55:53.615Z,10.90
2018-12-21T18:58:25.835Z,10.80
2018-12-21T19:01:00.471Z,10.90
2018-12-21T19:03:35.605Z,11.00
2018-12-21T19:06:08.885Z,11.00
2018-12-21T19:08:41.685Z,10.90
2018-12-21T19:11:12.303Z,11.00
2018-12-21T19:13:45.554Z,11.10
2018-12-21T19:16:17.422Z,11.10
2018-12-21T19:18:48.994Z,11.10
2018-12-21T19:21:24.377Z,11.00
2018-12-21T19:23:56.562Z,10.80
2018-12-21T19:26:28.856Z,10.80
2018-12-21T19:28:59.488Z,10.80
2018-12-21T19:31:34.522Z,10.70
2018-12-21T19:34:04.918Z,10.80
2018-12-21T19:36:37.224Z,11.00
2018-12-21T19:39:11.977Z,11.00
2018-12-21T19:41:47.335Z,10.80
2018-12-21T19:44:17.674Z,11.00
2018-12-21T19:46:49.679Z,11.00
2018-12-21T19:49:21.245Z,10.90
2018-12-21T19:51:53.685Z,10.90
2018-12-21T19:54:28.216Z,11.00
2018-12-21T19:57:04.621Z,11.00
2018-12-21T19:59:36.347Z,10.90
2018-12-21T20:02:10.671Z,11.00
2018-12-21T20:04:42.854Z,11.10
2018-12-21T20:07:12.555Z,11.00
2018-12-21T20:09:45.014Z,10.90
2018-12-21T20:12:19.473Z,11.10
2018-12-21T20:14:49.723Z,11.10
2018-12-21T20:17:21.266Z,10.90
2018-12-21T20:19:53.134Z,11.20
2018-12-21T20:22:27.717Z,11.10
2018-12-21T20:24:59.895Z,11.10
2018-12-21T20:27:42.763Z,10.90
2018-12-21T20:30:16.173Z,10.70
2018-12-21T20:32:45.893Z,10.70
2018-12-21T20:35:18.266Z,10.70
2018-12-21T20:37:48.578Z,10.70
2018-12-21T20:40:23.072Z,10.80
2018-12-21T20:42:55.792Z,10.80
2018-12-21T20:45:41.559Z,10.80
2018-12-21T20:48:13.962Z,10.70
2018-12-21T20:50:48.584Z,10.80
2018-12-21T20:53:21.471Z,10.90
2018-12-21T20:55:56.065Z,10.90
2018-12-21T20:58:30.682Z,10.90
2018-12-21T21:01:00.709Z,11.00
2018-12-21T21:03:30.857Z,11.00
2018-12-21T21:06:03.195Z,10.90
2018-12-21T21:08:33.790Z,10.90
2018-12-21T21:11:03.870Z,11.00
2018-12-21T21:13:38.728Z,11.00
2018-12-21T21:16:11.225Z,10.90
2018-12-21T21:18:42.938Z,10.90
2018-12-21T21:21:15.560Z,10.90
2018-12-21T21:23:48.465Z,10.90
2018-12-21T21:26:18.417Z,10.90
2018-12-21T21:28:50.499Z,10.90
2018-12-21T21:31:22.951Z,11.00
2018-12-21T21:33:54.803Z,11.10
2018-12-21T21:36:26.610Z,11.10
2018-12-21T21:38:58.409Z,11.10
2018-12-21T21:41:34.032Z,11.00
2018-12-21T21:44:09.480Z,10.80
2018-12-21T21:46:44.318Z,10.80
2018-12-21T21:49:19.522Z,10.80
2018-12-21T21:51:53.531Z,10.60
2018-12-21T21:54:25.857Z,10.80
2018-12-21T21:56:57.644Z,10.80
2018-12-21T21:59:30.226Z,11.00
2018-12-21T22:02:02.734Z,10.90
2018-12-21T22:04:34.328Z,10.90
2018-12-21T22:10:12.078Z,11.00
2018-12-21T22:15:39.889Z,11.10
2018-12-21T22:18:08.491Z,11.00
2018-12-21T22:20:38.182Z,11.00
2018-12-21T22:23:06.880Z,10.90
2018-12-21T22:25:41.990Z,10.90
2018-12-21T22:28:12.390Z,11.10
2018-12-21T22:30:41.736Z,10.90
2018-12-21T22:33:11.634Z,11.00
2018-12-21T22:35:40.256Z,11.00
2018-12-21T22:38:08.791Z,11.10
2018-12-21T22:40:37.453Z,11.30
2018-12-21T22:43:06.102Z,11.00
2018-12-21T22:48:45.595Z,11.30
2018-12-21T22:51:14.182Z,11.40
2018-12-21T22:59:49.354Z,11.20
2018-12-21T23:05:29.978Z,11.10
2018-12-21T23:08:11.013Z,10.90
2018-12-21T23:10:41.185Z,10.80
2018-12-21T23:13:09.782Z,10.80
2018-12-21T23:15:38.382Z,10.60
2018-12-21T23:18:06.903Z,10.70
2018-12-21T23:20:35.496Z,10.80
2018-12-21T23:23:04.008Z,11.10
2018-12-21T23:25:32.603Z,11.20
2018-12-21T23:28:08.687Z,11.30
2018-12-21T23:30:41.014Z,11.10
2018-12-21T23:33:12.907Z,10.90
2018-12-21T23:35:44.622Z,10.70
2018-12-21T23:38:19.049Z,10.80
2018-12-21T23:40:49.191Z,10.90
2018-12-21T23:43:23.554Z,11.00
2018-12-21T23:45:58.317Z,11.00
2018-12-21T23:48:30.257Z,10.80
2018-12-21T23:51:01.934Z,11.00
2018-12-21T23:53:34.418Z,11.00
2018-12-21T23:56:11.953Z,11.10
2018-12-21T23:58:40.501Z,11.10
